Time;durP1;ratioP1;P1;durP2;ratioP2;P2;SDS_P1;SDS_P2;PMS_P1;PMS_P2;Temp;Humidity;BMP_temperature;BMP_pressure;BME280_temperature;BME280_humidity;BME280_pressure;Samples;Min_cycle;Max_cycle;Signal;HPM_P1;HPM_P2
2022/04/12 00:01:00;;;;;;;0.93;0.80;;;9.90;99.90;;;;;;5055160;28;20400;-73
2022/04/12 00:03:26;;;;;;;1.10;0.70;;;9.90;99.90;;;;;;5055114;28;20802;-74
2022/04/12 00:05:52;;;;;;;0.70;0.50;;;9.90;99.90;;;;;;5054964;28;20424;-73
2022/04/12 00:08:18;;;;;;;1.40;1.20;;;9.90;99.90;;;;;;5053660;28;20480;-73
2022/04/12 00:10:44;;;;;;;1.30;0.83;;;9.90;99.90;;;;;;5054886;28;20194;-73
2022/04/12 00:13:09;;;;;;;0.70;0.50;;;9.80;99.90;;;;;;5054971;28;20444;-73
2022/04/12 00:15:35;;;;;;;2.23;1.43;;;9.80;99.90;;;;;;5054727;28;20183;-73
2022/04/12 00:20:45;;;;;;;1.37;1.23;;;9.70;99.90;;;;;;5055024;28;20194;-73
2022/04/12 00:23:13;;;;;;;0.83;0.73;;;9.70;99.90;;;;;;5053508;28;20421;-73
2022/04/12 00:25:39;;;;;;;0.70;0.50;;;9.70;99.90;;;;;;5054606;28;20229;-73
2022/04/12 00:28:05;;;;;;;0.70;0.50;;;9.60;99.90;;;;;;5053330;28;20441;-73
2022/04/12 00:30:32;;;;;;;1.00;0.90;;;9.60;99.90;;;;;;5054402;28;20175;-73
2022/04/12 00:32:57;;;;;;;1.43;1.00;;;9.60;99.90;;;;;;5054526;28;20400;-74
2022/04/12 00:35:25;;;;;;;1.20;1.10;;;9.60;99.90;;;;;;5054454;28;20782;-73
2022/04/12 00:37:51;;;;;;;0.70;0.50;;;9.50;99.90;;;;;;5054418;28;20202;-73
2022/04/12 00:40:18;;;;;;;1.00;0.90;;;9.50;99.90;;;;;;5053986;28;20401;-73
2022/04/12 00:42:46;;;;;;;2.43;1.10;;;9.50;99.90;;;;;;5054353;28;20948;-73
2022/04/12 00:45:12;;;;;;;0.80;0.57;;;9.50;99.90;;;;;;5054281;28;20398;-73
2022/04/12 00:47:39;;;;;;;0.70;0.60;;;9.50;99.90;;;;;;5054204;28;20440;-73
2022/04/12 00:50:05;;;;;;;0.80;0.60;;;9.40;99.90;;;;;;5053844;28;20174;-73
2022/04/12 00:52:36;;;;;;;0.70;0.50;;;9.40;99.90;;;;;;5054167;28;20410;-73
2022/04/12 00:55:03;;;;;;;0.80;0.60;;;9.40;99.90;;;;;;5054114;28;20514;-73
2022/04/12 00:57:30;;;;;;;0.70;0.50;;;9.40;99.90;;;;;;5054002;28;20465;-73
2022/04/12 00:59:56;;;;;;;0.70;0.50;;;9.40;99.90;;;;;;5053804;28;20472;-74
2022/04/12 01:02:22;;;;;;;0.80;0.73;;;9.40;99.90;;;;;;5053925;28;20912;-73
2022/04/12 01:04:48;;;;;;;0.80;0.50;;;9.40;99.90;;;;;;5053882;28;20445;-73
2022/04/12 01:07:14;;;;;;;1.07;0.97;;;9.40;99.90;;;;;;5051968;28;20437;-73
2022/04/12 01:09:39;;;;;;;3.17;2.87;;;9.50;99.90;;;;;;5053664;28;20175;-73
2022/04/12 01:12:09;;;;;;;2.00;1.03;;;9.40;99.90;;;;;;5052485;28;20421;-73
2022/04/12 01:14:35;;;;;;;3.80;1.27;;;9.40;99.90;;;;;;5053630;28;20173;-74
2022/04/12 01:17:06;;;;;;;0.80;0.63;;;9.40;99.90;;;;;;5053480;28;20453;-73
2022/04/12 01:19:32;;;;;;;2.53;0.80;;;9.40;99.90;;;;;;5053553;28;20501;-73
2022/04/12 01:22:06;;;;;;;0.70;0.50;;;9.50;99.90;;;;;;5053538;28;20448;-73
2022/04/12 01:24:32;;;;;;;1.07;0.67;;;9.50;99.90;;;;;;5053595;28;20410;-73
2022/04/12 01:26:58;;;;;;;0.80;0.60;;;9.50;99.90;;;;;;5053435;28;20893;-73
2022/04/12 01:29:25;;;;;;;0.70;0.50;;;9.50;99.90;;;;;;5053368;28;20405;-73
2022/04/12 01:31:51;;;;;;;0.83;0.70;;;9.50;99.90;;;;;;5053454;28;20420;-73
2022/04/12 01:34:17;;;;;;;0.80;0.80;;;9.50;99.90;;;;;;5053310;28;20413;-73
2022/04/12 01:36:42;;;;;;;0.90;0.80;;;9.50;99.90;;;;;;5053249;28;20556;-73
2022/04/12 01:39:08;;;;;;;0.80;0.60;;;9.50;99.90;;;;;;5051915;28;20587;-73
2022/04/12 01:41:34;;;;;;;1.73;1.37;;;9.50;99.90;;;;;;5053314;28;20516;-73
2022/04/12 01:43:59;;;;;;;0.80;0.60;;;9.50;99.90;;;;;;5051848;28;20262;-73
2022/04/12 01:46:26;;;;;;;0.70;0.50;;;9.50;99.90;;;;;;5051797;28;20281;-73
2022/04/12 01:48:51;;;;;;;1.17;1.03;;;9.60;99.90;;;;;;5052920;28;20261;-73
2022/04/12 01:51:17;;;;;;;0.83;0.80;;;9.60;99.90;;;;;;5053097;28;20842;-73
2022/04/12 01:53:43;;;;;;;1.13;0.70;;;9.50;99.90;;;;;;5052763;28;20194;-73
2022/04/12 01:56:08;;;;;;;1.07;0.97;;;9.50;99.90;;;;;;5052849;28;20211;-73
2022/04/12 01:58:35;;;;;;;0.80;0.70;;;9.50;99.90;;;;;;5052712;28;20167;-73
2022/04/12 02:01:02;;;;;;;0.80;0.60;;;9.60;99.90;;;;;;5052893;28;20300;-73
2022/04/12 02:03:29;;;;;;;4.70;1.20;;;9.60;99.90;;;;;;5052847;28;20406;-74
2022/04/12 02:05:57;;;;;;;0.77;0.60;;;9.60;99.90;;;;;;5051417;28;20976;-73
2022/04/12 02:08:23;;;;;;;7.63;0.97;;;9.70;99.90;;;;;;5052845;28;20887;-73
2022/04/12 02:10:48;;;;;;;1.93;0.80;;;9.70;99.90;;;;;;5052524;28;20401;-73
2022/04/12 02:13:16;;;;;;;0.70;0.50;;;9.80;99.90;;;;;;5052712;28;20173;-73
2022/04/12 02:15:42;;;;;;;0.70;0.60;;;9.70;99.90;;;;;;5052372;28;20551;-73
2022/04/12 02:18:07;;;;;;;0.93;0.80;;;9.80;99.90;;;;;;5051853;28;20408;-73
2022/04/12 02:20:33;;;;;;;0.80;0.60;;;9.80;99.90;;;;;;5050964;28;20418;-73
2022/04/12 02:22:58;;;;;;;0.70;0.60;;;9.90;99.90;;;;;;5052533;28;20189;-73
2022/04/12 02:25:24;;;;;;;0.80;0.70;;;9.80;99.90;;;;;;5052240;28;20535;-73
2022/04/12 02:27:49;;;;;;;0.73;0.57;;;9.80;99.90;;;;;;5052466;28;20186;-73
2022/04/12 02:30:15;;;;;;;0.90;0.80;;;9.80;99.90;;;;;;5052097;28;20167;-73
2022/04/12 02:32:41;;;;;;;1.03;0.93;;;9.80;99.90;;;;;;5052317;28;20201;-73
2022/04/12 02:35:07;;;;;;;0.70;0.63;;;9.90;99.90;;;;;;5052245;28;20167;-74
2022/04/12 02:37:33;;;;;;;0.70;0.53;;;9.90;99.90;;;;;;5052125;28;20456;-74
2022/04/12 02:39:58;;;;;;;1.13;0.90;;;10.00;99.90;;;;;;5051934;28;20410;-74
2022/04/12 02:42:24;;;;;;;1.87;1.77;;;10.00;99.90;;;;;;5052249;28;20171;-74
2022/04/12 02:44:49;;;;;;;0.80;0.70;;;10.10;99.90;;;;;;5051739;28;20533;-74
2022/04/12 02:47:15;;;;;;;2.10;0.80;;;10.10;99.90;;;;;;5051957;28;20201;-74
2022/04/12 02:49:41;;;;;;;0.70;0.50;;;10.10;99.90;;;;;;5051969;28;20182;-75
2022/04/12 02:52:08;;;;;;;1.03;0.93;;;10.10;99.90;;;;;;5052026;28;20166;-74
2022/04/12 02:54:34;;;;;;;1.23;0.80;;;10.10;99.90;;;;;;5050642;28;20178;-74
2022/04/12 02:57:00;;;;;;;0.97;0.70;;;10.10;99.90;;;;;;5051800;28;20449;-74
2022/04/12 02:59:25;;;;;;;2.60;2.50;;;10.20;99.90;;;;;;5051697;28;20906;-74
2022/04/12 03:01:51;;;;;;;0.70;0.50;;;10.20;99.90;;;;;;5051798;28;20262;-74
2022/04/12 03:04:16;;;;;;;0.70;0.50;;;10.20;99.90;;;;;;5051916;28;20171;-74
2022/04/12 03:06:42;;;;;;;0.80;0.67;;;10.20;99.90;;;;;;5051769;28;20190;-74
2022/04/12 03:09:07;;;;;;;1.67;1.10;;;10.30;99.90;;;;;;5051651;28;20165;-74
2022/04/12 03:11:34;;;;;;;0.80;0.60;;;10.20;99.90;;;;;;5051861;28;20587;-74
2022/04/12 03:13:59;;;;;;;0.80;0.70;;;10.10;99.90;;;;;;5051782;28;20679;-74
2022/04/12 03:16:25;;;;;;;0.80;0.60;;;10.10;99.90;;;;;;5051600;28;20564;-74
2022/04/12 03:18:51;;;;;;;0.80;0.63;;;10.10;99.90;;;;;;5051613;28;20543;-74
2022/04/12 03:21:16;;;;;;;0.70;0.50;;;10.00;99.90;;;;;;5051782;28;20159;-74
2022/04/12 03:23:42;;;;;;;1.87;0.70;;;10.00;99.90;;;;;;5051770;28;20167;-74
2022/04/12 03:26:07;;;;;;;1.00;0.90;;;10.00;99.90;;;;;;5051601;28;20195;-74
2022/04/12 03:28:33;;;;;;;1.40;0.73;;;10.00;99.90;;;;;;5052490;28;20201;-74
2022/04/12 03:30:59;;;;;;;0.70;0.50;;;10.00;99.90;;;;;;5055587;28;20186;-74
2022/04/12 03:33:25;;;;;;;0.80;0.50;;;10.00;99.90;;;;;;5055719;28;20917;-74
2022/04/12 03:35:50;;;;;;;1.00;0.90;;;10.00;99.90;;;;;;5055559;28;20282;-74
2022/04/12 03:38:16;;;;;;;0.97;0.87;;;9.90;99.90;;;;;;5054347;28;20620;-74
2022/04/12 03:40:42;;;;;;;0.70;0.50;;;9.90;99.90;;;;;;5055363;28;20163;-75
2022/04/12 03:43:08;;;;;;;0.70;0.50;;;9.80;99.90;;;;;;5055353;28;20404;-74
2022/04/12 03:45:33;;;;;;;1.33;0.77;;;9.80;99.90;;;;;;5055484;28;20224;-74
2022/04/12 03:48:00;;;;;;;1.00;0.90;;;9.80;99.90;;;;;;5055407;28;20205;-74
2022/04/12 03:50:25;;;;;;;0.80;0.67;;;9.80;99.90;;;;;;5055250;28;20175;-74
2022/04/12 03:52:51;;;;;;;0.77;0.60;;;9.70;99.90;;;;;;5054070;28;20467;-74
2022/04/12 03:55:30;;;;;;;0.70;0.50;;;9.70;99.90;;;;;;5055146;28;20265;-75
2022/04/12 03:58:07;;;;;;;3.17;2.97;;;9.70;99.90;;;;;;5053812;28;20460;-74
2022/04/12 04:00:34;;;;;;;0.80;0.60;;;9.70;99.90;;;;;;5055038;28;20411;-74
2022/04/12 04:03:00;;;;;;;1.00;0.70;;;9.60;99.90;;;;;;5053857;28;20513;-75
2022/04/12 04:05:26;;;;;;;1.73;1.43;;;9.50;99.90;;;;;;5055071;28;20441;-74
2022/04/12 04:07:52;;;;;;;0.97;0.70;;;9.50;99.90;;;;;;5055030;28;20413;-75
2022/04/12 04:10:18;;;;;;;0.70;0.50;;;9.50;99.90;;;;;;5053308;28;20417;-74
2022/04/12 04:12:44;;;;;;;1.63;1.13;;;9.50;99.90;;;;;;5054735;28;20413;-74
2022/04/12 04:15:14;;;;;;;0.80;0.60;;;9.50;99.90;;;;;;5054901;28;20408;-74
2022/04/12 04:17:41;;;;;;;0.83;0.70;;;9.40;99.90;;;;;;5054825;28;20191;-74
2022/04/12 04:20:07;;;;;;;0.97;0.70;;;9.30;99.90;;;;;;5054440;28;20405;-74
2022/04/12 04:22:33;;;;;;;0.80;0.70;;;9.30;99.90;;;;;;5054820;28;20405;-74
2022/04/12 04:24:58;;;;;;;0.70;0.60;;;9.30;99.90;;;;;;5054729;28;20755;-74
2022/04/12 04:27:28;;;;;;;0.70;0.50;;;9.30;99.90;;;;;;5054557;28;20194;-74
2022/04/12 04:29:55;;;;;;;9.00;0.97;;;9.30;99.90;;;;;;5054735;28;20636;-74
2022/04/12 04:32:21;;;;;;;0.90;0.60;;;9.20;99.90;;;;;;5053465;28;20421;-74
2022/04/12 04:34:47;;;;;;;0.80;0.80;;;9.20;99.90;;;;;;5054574;28;20408;-74
2022/04/12 04:37:12;;;;;;;0.80;0.70;;;9.20;99.90;;;;;;5054420;28;20453;-74
2022/04/12 04:39:38;;;;;;;0.80;0.60;;;9.10;99.90;;;;;;5053989;28;20174;-74
2022/04/12 04:42:05;;;;;;;1.63;0.90;;;9.10;99.90;;;;;;5053755;28;20595;-74
2022/04/12 04:44:31;;;;;;;0.97;0.90;;;9.10;99.90;;;;;;5054372;28;20182;-74
2022/04/12 04:46:56;;;;;;;2.70;0.70;;;9.10;99.90;;;;;;5054310;28;20425;-75
2022/04/12 04:49:22;;;;;;;1.10;0.97;;;9.10;99.90;;;;;;5054033;28;20499;-74
2022/04/12 04:51:47;;;;;;;1.27;1.13;;;9.10;99.90;;;;;;5054294;28;20174;-74
2022/04/12 04:54:13;;;;;;;1.40;1.30;;;9.00;99.90;;;;;;5054118;28;20586;-74
2022/04/12 04:56:39;;;;;;;0.93;0.60;;;9.00;99.90;;;;;;5053957;28;20205;-73
2022/04/12 04:59:04;;;;;;;0.70;0.50;;;9.10;99.90;;;;;;5052613;28;20171;-74
2022/04/12 05:01:30;;;;;;;0.80;0.60;;;9.10;99.90;;;;;;5054317;28;20217;-74
2022/04/12 05:03:55;;;;;;;1.27;1.10;;;9.10;99.90;;;;;;5054080;28;20653;-74
2022/04/12 05:06:21;;;;;;;0.70;0.50;;;9.10;99.90;;;;;;5052691;28;20195;-73
2022/04/12 05:08:46;;;;;;;0.70;0.50;;;9.10;99.90;;;;;;5052528;28;20246;-74
2022/04/12 05:11:12;;;;;;;0.80;0.70;;;9.20;99.90;;;;;;5052432;28;20179;-74
2022/04/12 05:13:38;;;;;;;0.80;0.80;;;9.30;99.90;;;;;;5053951;28;20171;-74
2022/04/12 05:16:03;;;;;;;2.90;1.07;;;9.30;99.90;;;;;;5053663;28;20570;-74
2022/04/12 05:18:29;;;;;;;1.20;0.80;;;9.30;99.90;;;;;;5053856;28;20175;-74
2022/04/12 05:20:54;;;;;;;1.00;0.70;;;9.30;99.90;;;;;;5052214;28;20563;-74
2022/04/12 05:23:20;;;;;;;0.80;0.80;;;9.40;99.90;;;;;;5053724;28;20250;-74
2022/04/12 05:25:45;;;;;;;0.70;0.50;;;9.40;99.90;;;;;;5053449;28;20179;-74
2022/04/12 05:28:11;;;;;;;0.70;0.50;;;9.40;99.90;;;;;;5053621;28;20168;-74
2022/04/12 05:30:36;;;;;;;0.80;0.70;;;9.40;99.90;;;;;;5053353;28;20167;-74
2022/04/12 05:33:02;;;;;;;0.70;0.50;;;9.40;99.90;;;;;;5053470;28;20167;-74
2022/04/12 05:35:28;;;;;;;1.07;0.90;;;9.50;99.90;;;;;;5053259;28;20167;-74
2022/04/12 05:37:53;;;;;;;2.80;0.87;;;9.40;99.90;;;;;;5052032;28;20206;-74
2022/04/12 05:40:21;;;;;;;0.80;0.60;;;9.40;99.90;;;;;;5053006;28;20185;-74
2022/04/12 05:42:47;;;;;;;0.70;0.50;;;9.40;99.90;;;;;;5053383;28;20162;-74
2022/04/12 05:45:14;;;;;;;0.70;0.50;;;9.40;99.90;;;;;;5053167;28;20400;-74
2022/04/12 05:47:49;;;;;;;0.90;0.70;;;9.60;99.90;;;;;;5053238;28;20500;-74
2022/04/12 05:50:16;;;;;;;4.83;0.70;;;10.20;99.90;;;;;;5053005;28;20397;-74
2022/04/12 05:52:42;;;;;;;2.23;0.80;;;10.90;99.90;;;;;;5051748;28;20413;-74
2022/04/12 05:55:09;;;;;;;1.50;0.70;;;11.60;99.90;;;;;;5052917;28;20456;-74
2022/04/12 05:57:37;;;;;;;2.10;1.27;;;12.50;99.90;;;;;;5052864;28;20999;-74
2022/04/12 06:00:06;;;;;;;1.77;1.67;;;13.20;99.90;;;;;;5051423;28;20413;-74
2022/04/12 06:02:32;;;;;;;0.93;0.77;;;13.70;99.90;;;;;;5052920;28;20798;-74
2022/04/12 06:04:57;;;;;;;1.20;1.07;;;13.90;99.90;;;;;;5052730;28;20401;-74
2022/04/12 06:07:29;;;;;;;1.87;1.77;;;14.30;99.90;;;;;;5052626;28;20564;-74
2022/04/12 06:09:54;;;;;;;1.10;0.90;;;14.70;99.90;;;;;;5052549;28;20206;-74
2022/04/12 06:12:20;;;;;;;0.90;0.70;;;14.90;99.90;;;;;;5051410;28;20449;-75
2022/04/12 06:14:45;;;;;;;1.20;0.90;;;15.00;99.90;;;;;;5051421;28;20636;-75
2022/04/12 06:17:11;;;;;;;1.83;1.73;;;15.20;98.10;;;;;;5052368;28;20202;-74
2022/04/12 06:19:36;;;;;;;2.10;1.70;;;15.00;96.10;;;;;;5052263;28;20163;-74
2022/04/12 06:22:02;;;;;;;1.47;1.10;;;14.70;95.80;;;;;;5051184;28;20655;-74
2022/04/12 06:24:28;;;;;;;1.23;1.13;;;14.40;96.30;;;;;;5052439;28;20174;-74
2022/04/12 06:26:53;;;;;;;0.80;0.60;;;14.20;97.60;;;;;;5052397;28;20202;-74
2022/04/12 06:29:19;;;;;;;0.80;0.60;;;14.00;97.60;;;;;;5052180;28;20517;-74
2022/04/12 06:31:44;;;;;;;0.80;0.80;;;14.00;97.90;;;;;;5052424;28;20648;-75
2022/04/12 06:34:10;;;;;;;1.20;0.93;;;14.10;98.20;;;;;;5052325;28;20250;-74
2022/04/12 06:36:35;;;;;;;1.30;0.90;;;14.10;97.70;;;;;;5052374;28;20671;-74
2022/04/12 06:39:01;;;;;;;1.33;1.20;;;14.10;98.00;;;;;;5052022;28;20167;-73
2022/04/12 06:41:26;;;;;;;0.80;0.60;;;14.20;98.10;;;;;;5050945;28;20175;-74
2022/04/12 06:43:52;;;;;;;1.03;0.93;;;14.30;98.00;;;;;;5052123;28;20532;-74
2022/04/12 06:46:17;;;;;;;1.10;0.77;;;14.40;98.10;;;;;;5052106;28;20194;-74
2022/04/12 06:48:43;;;;;;;2.33;0.97;;;14.50;97.80;;;;;;5050837;28;20171;-74
2022/04/12 06:51:08;;;;;;;2.07;1.00;;;14.70;98.00;;;;;;5051866;28;20833;-74
2022/04/12 06:53:34;;;;;;;1.20;1.10;;;15.00;98.60;;;;;;5052033;28;20175;-74
2022/04/12 06:56:00;;;;;;;1.73;1.20;;;15.20;96.10;;;;;;5051864;28;20655;-74
2022/04/12 06:58:25;;;;;;;1.83;1.43;;;15.30;95.00;;;;;;5052054;28;20496;-74
2022/04/12 07:00:51;;;;;;;1.47;1.23;;;15.50;94.40;;;;;;5051881;28;20246;-74
2022/04/12 07:03:16;;;;;;;1.50;0.83;;;15.70;93.70;;;;;;5050198;28;20167;-75
2022/04/12 07:05:42;;;;;;;2.70;1.10;;;15.90;92.90;;;;;;5051816;28;20245;-74
2022/04/12 07:08:07;;;;;;;1.47;1.20;;;16.10;91.80;;;;;;5051967;28;20528;-74
2022/04/12 07:10:33;;;;;;;1.10;0.93;;;16.00;91.40;;;;;;5051665;28;20174;-75
2022/04/12 07:12:59;;;;;;;1.20;0.90;;;16.00;91.30;;;;;;5050883;28;20662;-75
2022/04/12 07:15:24;;;;;;;3.80;1.00;;;16.30;91.30;;;;;;5050494;28;20202;-75
2022/04/12 07:17:50;;;;;;;2.53;1.10;;;17.10;90.30;;;;;;5051769;28;20703;-75
2022/04/12 07:20:15;;;;;;;1.10;0.90;;;17.90;85.10;;;;;;5051520;28;20159;-76
2022/04/12 07:22:41;;;;;;;2.17;1.10;;;18.60;79.10;;;;;;5051885;28;20221;-75
2022/04/12 07:25:07;;;;;;;0.90;0.80;;;18.80;73.60;;;;;;5051722;28;20192;-75
2022/04/12 07:27:36;;;;;;;6.93;1.10;;;18.60;72.30;;;;;;5051794;28;20191;-75
2022/04/12 07:30:03;;;;;;;1.57;1.37;;;18.20;70.80;;;;;;5051555;28;20408;-74
2022/04/12 07:32:29;;;;;;;0.90;0.70;;;18.00;72.20;;;;;;5051702;28;20459;-74
2022/04/12 07:34:54;;;;;;;2.07;1.87;;;17.90;72.30;;;;;;5051610;28;20401;-74
2022/04/12 07:37:20;;;;;;;4.33;1.73;;;18.30;73.10;;;;;;5051524;28;20610;-74
2022/04/12 07:39:45;;;;;;;1.57;1.17;;;18.90;68.90;;;;;;5051316;28;20640;-75
2022/04/12 07:42:11;;;;;;;2.40;1.80;;;19.50;68.70;;;;;;5051586;28;20213;-75
2022/04/12 07:44:36;;;;;;;1.33;0.80;;;20.10;65.90;;;;;;5051550;28;20163;-75
2022/04/12 07:47:02;;;;;;;4.73;1.63;;;20.60;61.10;;;;;;5051511;28;20253;-75
2022/04/12 07:49:28;;;;;;;1.57;1.17;;;20.70;59.90;;;;;;5051228;28;20262;-75
2022/04/12 07:51:53;;;;;;;1.43;1.33;;;20.80;58.20;;;;;;5050231;28;20167;-75
2022/04/12 07:54:19;;;;;;;2.03;1.67;;;20.70;57.90;;;;;;5051264;28;20163;-75
2022/04/12 07:56:44;;;;;;;2.93;1.20;;;20.90;58.70;;;;;;5051386;28;20218;-75
2022/04/12 07:59:10;;;;;;;2.43;2.23;;;21.30;59.50;;;;;;5051319;28;20172;-75
2022/04/12 08:01:36;;;;;;;1.20;1.07;;;21.50;58.20;;;;;;5051425;28;20164;-75
2022/04/12 08:04:02;;;;;;;1.63;1.10;;;21.70;56.60;;;;;;5051313;28;20169;-74
2022/04/12 08:06:27;;;;;;;1.10;1.00;;;21.70;56.80;;;;;;5051307;28;20519;-75
2022/04/12 08:08:53;;;;;;;1.20;1.07;;;22.10;57.50;;;;;;5051344;28;20167;-75
2022/04/12 08:11:18;;;;;;;1.80;1.70;;;22.50;55.30;;;;;;5051056;28;20167;-75
2022/04/12 08:13:45;;;;;;;2.07;0.90;;;23.00;53.90;;;;;;5051367;28;20174;-75
2022/04/12 08:16:12;;;;;;;0.93;0.83;;;23.30;54.20;;;;;;5052849;28;20187;-75
2022/04/12 08:18:38;;;;;;;2.53;0.97;;;24.10;53.00;;;;;;5054901;28;20409;-76
2022/04/12 08:21:04;;;;;;;2.13;1.73;;;24.70;50.80;;;;;;5054602;28;20770;-75
2022/04/12 08:23:29;;;;;;;3.33;1.50;;;25.30;50.60;;;;;;5054759;28;20631;-75
2022/04/12 08:25:55;;;;;;;1.63;1.20;;;26.10;48.90;;;;;;5054664;28;20186;-75
2022/04/12 08:28:20;;;;;;;1.50;1.40;;;26.90;47.10;;;;;;5054742;28;20250;-75
2022/04/12 08:30:46;;;;;;;2.30;1.67;;;27.80;45.80;;;;;;5054457;28;20182;-75
2022/04/12 08:33:13;;;;;;;1.83;1.40;;;28.70;44.40;;;;;;5054643;28;20159;-75
2022/04/12 08:35:38;;;;;;;1.47;1.27;;;29.50;43.30;;;;;;5054466;28;20429;-75
2022/04/12 08:38:04;;;;;;;2.23;2.00;;;30.00;41.30;;;;;;5053192;28;20491;-75
2022/04/12 08:40:30;;;;;;;2.37;2.17;;;29.80;39.30;;;;;;5054237;28;20176;-75
2022/04/12 08:42:59;;;;;;;1.67;1.27;;;28.90;38.90;;;;;;5054502;28;20170;-75
2022/04/12 08:45:25;;;;;;;2.67;1.57;;;28.30;39.50;;;;;;5053007;28;20432;-75
2022/04/12 08:47:52;;;;;;;2.33;2.13;;;27.90;41.00;;;;;;5054422;28;20882;-75
2022/04/12 08:50:19;;;;;;;1.50;1.10;;;27.50;39.90;;;;;;5054199;28;20797;-75
2022/04/12 08:52:46;;;;;;;3.67;1.50;;;28.00;41.50;;;;;;5054274;28;20405;-75
2022/04/12 08:55:12;;;;;;;2.60;1.57;;;28.50;40.80;;;;;;5054148;28;20425;-75
2022/04/12 08:57:38;;;;;;;1.53;1.07;;;28.60;40.60;;;;;;5053916;28;20898;-75
2022/04/12 09:00:05;;;;;;;2.30;1.60;;;29.30;40.50;;;;;;5053890;28;20433;-75
2022/04/12 09:02:32;;;;;;;5.83;2.43;;;29.00;38.90;;;;;;5054028;28;20929;-76
2022/04/12 09:04:57;;;;;;;1.30;1.00;;;29.20;38.60;;;;;;5054153;28;20910;-75
2022/04/12 09:07:27;;;;;;;1.50;1.40;;;29.00;38.50;;;;;;5053943;28;20421;-76
2022/04/12 09:10:03;;;;;;;1.83;0.90;;;29.40;38.40;;;;;;5052455;28;20167;-76
2022/04/12 09:12:33;;;;;;;1.43;1.27;;;29.70;37.80;;;;;;5053961;28;20412;-76
2022/04/12 09:14:59;;;;;;;1.67;1.57;;;30.50;39.10;;;;;;5053893;28;20405;-76
2022/04/12 09:17:38;;;;;;;2.80;1.40;;;31.10;37.00;;;;;;5053666;28;20460;-76
2022/04/12 09:20:19;;;;;;;2.53;1.80;;;31.90;37.30;;;;;;5053536;28;20159;-75
2022/04/12 09:22:45;;;;;;;1.83;1.30;;;32.90;36.60;;;;;;5053734;28;20932;-76
2022/04/12 09:25:11;;;;;;;1.93;1.83;;;33.10;35.10;;;;;;5053635;28;20409;-75
2022/04/12 09:27:38;;;;;;;2.23;2.00;;;32.90;35.10;;;;;;5051970;28;20421;-75
2022/04/12 09:30:09;;;;;;;1.57;1.37;;;32.80;35.40;;;;;;5052064;28;20783;-75
2022/04/12 09:32:40;;;;;;;2.83;1.40;;;32.30;34.90;;;;;;5053603;28;20432;-76
2022/04/12 09:35:07;;;;;;;1.90;1.77;;;32.40;34.60;;;;;;5053505;28;20402;-76
2022/04/12 09:37:34;;;;;;;2.83;2.50;;;32.50;34.60;;;;;;5053221;28;20499;-76
2022/04/12 09:40:00;;;;;;;1.70;1.40;;;32.70;33.80;;;;;;5053188;28;20431;-76
2022/04/12 09:42:47;;;;;;;1.53;1.27;;;33.10;33.90;;;;;;5053327;28;20402;-76
2022/04/12 09:45:14;;;;;;;1.70;1.07;;;33.50;33.70;;;;;;5053280;28;20194;-76
2022/04/12 09:47:40;;;;;;;1.30;1.10;;;33.90;33.30;;;;;;5053252;28;20771;-76
2022/04/12 09:50:07;;;;;;;2.03;1.40;;;33.90;32.90;;;;;;5052970;28;20401;-76
2022/04/12 09:52:33;;;;;;;1.63;1.27;;;34.10;32.40;;;;;;5053089;28;20436;-77
2022/04/12 09:54:58;;;;;;;1.30;1.20;;;34.20;32.70;;;;;;5051751;28;20817;-75
2022/04/12 09:57:25;;;;;;;1.40;1.10;;;34.30;31.70;;;;;;5053075;28;20209;-76
2022/04/12 09:59:55;;;;;;;1.97;1.47;;;34.30;32.50;;;;;;5052722;28;20538;-76
2022/04/12 10:02:23;;;;;;;1.93;1.73;;;34.20;31.20;;;;;;5051691;28;20475;-76
2022/04/12 10:04:53;;;;;;;1.00;0.90;;;34.20;31.30;;;;;;5052782;28;20405;-75
2022/04/12 10:07:20;;;;;;;2.27;0.97;;;35.00;32.20;;;;;;5053005;28;20789;-75
2022/04/12 10:09:51;;;;;;;1.27;1.17;;;35.30;31.20;;;;;;5052477;28;20405;-76
2022/04/12 10:12:18;;;;;;;1.90;1.33;;;36.10;30.60;;;;;;5052864;28;20496;-76
2022/04/12 10:14:45;;;;;;;1.33;1.17;;;36.50;30.70;;;;;;5052681;28;20397;-76
2022/04/12 10:17:12;;;;;;;1.63;1.40;;;37.10;30.90;;;;;;5052376;28;20456;-77
2022/04/12 10:19:39;;;;;;;2.33;1.50;;;37.90;30.40;;;;;;5050560;28;20470;-76
2022/04/12 10:22:05;;;;;;;1.77;1.40;;;38.20;29.80;;;;;;5052591;28;20397;-77
2022/04/12 10:24:32;;;;;;;1.30;1.20;;;38.30;29.40;;;;;;5052552;28;20405;-77
2022/04/12 10:26:58;;;;;;;2.10;1.67;;;38.50;28.90;;;;;;5052477;28;20362;-76
2022/04/12 10:29:23;;;;;;;2.90;2.07;;;38.80;29.20;;;;;;5052276;28;20414;-76
2022/04/12 10:32:00;;;;;;;1.37;1.27;;;38.80;28.40;;;;;;5052392;28;20478;-77
2022/04/12 10:34:26;;;;;;;2.17;1.97;;;39.00;28.50;;;;;;5052549;28;20158;-77
2022/04/12 10:36:54;;;;;;;1.70;1.60;;;39.30;28.60;;;;;;5052147;28;20448;-75
2022/04/12 10:39:21;;;;;;;1.93;1.43;;;38.70;28.20;;;;;;5051529;28;20459;-75
2022/04/12 10:41:51;;;;;;;1.30;1.20;;;37.80;28.50;;;;;;5052198;28;20455;-75
2022/04/12 10:44:20;;;;;;;1.63;1.10;;;37.50;28.50;;;;;;5052131;28;20404;-75
2022/04/12 10:46:53;;;;;;;1.50;1.40;;;37.60;29.10;;;;;;5052075;28;20430;-75
2022/04/12 10:49:20;;;;;;;1.43;1.30;;;37.60;29.10;;;;;;5052109;28;20895;-76
2022/04/12 10:51:54;;;;;;;2.50;1.20;;;37.80;28.60;;;;;;5051983;28;20747;-76
2022/04/12 10:54:29;;;;;;;1.90;1.17;;;38.00;29.00;;;;;;5050673;28;20639;-77
2022/04/12 10:57:17;;;;;;;1.20;1.00;;;38.50;28.40;;;;;;5052056;28;21016;-76
2022/04/12 11:00:10;;;;;;;1.53;1.20;;;39.10;29.00;;;;;;5051996;28;20441;-76
2022/04/12 11:02:38;;;;;;;1.10;1.00;;;39.30;28.30;;;;;;5051951;28;20410;-76
2022/04/12 11:05:05;;;;;;;1.30;1.10;;;39.20;28.00;;;;;;5051785;28;20912;-76
2022/04/12 11:07:35;;;;;;;2.13;1.87;;;39.20;28.00;;;;;;5051838;28;20918;-74
2022/04/12 11:10:17;;;;;;;1.20;1.10;;;39.30;28.00;;;;;;5051706;28;20413;-77
2022/04/12 11:12:44;;;;;;;3.33;1.47;;;39.20;28.10;;;;;;5051874;28;20902;-74
2022/04/12 11:15:27;;;;;;;1.40;1.00;;;38.90;27.80;;;;;;5050594;28;20791;-77
2022/04/12 11:18:05;;;;;;;1.20;1.10;;;38.70;28.20;;;;;;5051717;28;20892;-77
2022/04/12 11:20:32;;;;;;;1.97;1.57;;;38.90;29.00;;;;;;5051810;28;20406;-76
2022/04/12 11:22:59;;;;;;;1.17;0.93;;;39.00;28.40;;;;;;5051865;28;20401;-76
2022/04/12 11:25:26;;;;;;;1.17;1.07;;;39.30;29.40;;;;;;5051640;28;20412;-77
2022/04/12 11:28:00;;;;;;;1.20;1.00;;;39.50;28.10;;;;;;5051786;28;20459;-76
2022/04/12 11:30:26;;;;;;;2.50;1.40;;;39.50;27.20;;;;;;5051364;28;20504;-76
2022/04/12 11:32:55;;;;;;;1.10;1.00;;;38.90;27.30;;;;;;5051427;28;20802;-77
2022/04/12 11:35:23;;;;;;;1.30;1.20;;;38.90;27.80;;;;;;5051618;28;20406;-77
2022/04/12 11:37:50;;;;;;;1.50;1.40;;;38.90;28.10;;;;;;5050041;28;20457;-76
2022/04/12 11:40:16;;;;;;;1.17;0.90;;;38.90;28.00;;;;;;5051223;28;20458;-77
2022/04/12 11:42:43;;;;;;;1.00;0.90;;;39.20;28.60;;;;;;5051535;28;20492;-76
2022/04/12 11:45:10;;;;;;;1.53;1.20;;;39.40;28.00;;;;;;5051819;28;20221;-76
2022/04/12 11:47:39;;;;;;;1.40;1.30;;;39.30;27.40;;;;;;5051432;28;20991;-78
2022/04/12 11:50:16;;;;;;;1.40;1.30;;;39.30;27.50;;;;;;5052879;28;20902;-76
2022/04/12 11:52:44;;;;;;;1.10;0.93;;;39.50;27.30;;;;;;5054184;28;20416;-77
2022/04/12 11:55:09;;;;;;;1.60;1.50;;;39.80;27.20;;;;;;5055083;28;20926;-76
2022/04/12 11:57:35;;;;;;;1.10;1.00;;;39.70;26.90;;;;;;5055295;28;20457;-76
2022/04/12 12:00:01;;;;;;;1.60;1.27;;;39.90;26.90;;;;;;5054879;28;20170;-76
2022/04/12 12:02:32;;;;;;;1.20;1.10;;;40.50;27.90;;;;;;5055310;28;20171;-76
2022/04/12 12:05:02;;;;;;;1.13;0.93;;;40.80;26.60;;;;;;5055184;28;20393;-75
2022/04/12 12:07:28;;;;;;;1.20;1.10;;;40.40;26.30;;;;;;5053734;28;21019;-76
2022/04/12 12:10:01;;;;;;;1.07;0.97;;;39.80;26.40;;;;;;5054817;28;20420;-76
2022/04/12 12:12:46;;;;;;;1.40;1.00;;;39.00;26.70;;;;;;5053784;28;20504;-76
2022/04/12 12:15:18;;;;;;;1.63;1.00;;;39.00;27.30;;;;;;5054982;28;20406;-76
2022/04/12 12:17:46;;;;;;;2.30;1.13;;;39.30;27.50;;;;;;5054855;28;20552;-75
2022/04/12 12:20:13;;;;;;;2.40;2.20;;;38.70;27.50;;;;;;5054680;28;20433;-75
2022/04/12 12:22:40;;;;;;;1.57;1.27;;;37.40;27.20;;;;;;5054970;28;20459;-75
2022/04/12 12:25:06;;;;;;;1.00;0.83;;;35.90;28.00;;;;;;5054780;28;20410;-75
2022/04/12 12:27:36;;;;;;;1.00;0.80;;;34.30;29.00;;;;;;5054655;28;20773;-74
2022/04/12 12:30:15;;;;;;;1.00;0.90;;;33.00;30.60;;;;;;5054356;28;20420;-76
2022/04/12 12:32:42;;;;;;;2.03;1.00;;;32.20;32.00;;;;;;5054553;28;20808;-75
2022/04/12 12:35:09;;;;;;;1.10;0.97;;;31.90;32.00;;;;;;5054604;28;20782;-75
2022/04/12 12:37:36;;;;;;;1.60;1.43;;;31.70;32.90;;;;;;5054387;28;21048;-76
2022/04/12 12:40:04;;;;;;;1.00;0.87;;;31.30;32.40;;;;;;5054243;28;20437;-76
2022/04/12 12:42:37;;;;;;;2.87;1.20;;;30.80;34.40;;;;;;5054585;28;20471;-76
2022/04/12 12:45:13;;;;;;;3.13;1.20;;;30.40;34.50;;;;;;5054967;28;20925;-75
2022/04/12 12:47:45;;;;;;;0.90;0.70;;;29.90;34.80;;;;;;5054489;28;20424;-76
2022/04/12 12:50:13;;;;;;;0.90;0.60;;;29.60;35.30;;;;;;5052796;28;20918;-76
2022/04/12 12:52:39;;;;;;;0.90;0.80;;;29.80;36.00;;;;;;5054441;28;20412;-76